Bowling Green, Kentucky
Current Conditions -  °F | °C
As of 9:53 AM on Wednesday 26 Nov 2014 (Local Time) from KBWG Reporting Station
Clear Clear  
Wind Chill:   Ceiling: Unl
Heat Index:   Visibility: 8mi
Dew Point: -2°   Wind: 0mph
Humidity: 76%   Direction: NA
Pressure: 30.14"   Gusts: NA
Location:  36.99°N, 86.44°W
Report Text: KBWG 261553Z AUTO 00000KT 8SM CLR 02/M02 A3014 RMK AO2 SLP210 T00221017
Loading
Personal Weather Stations






























Interactive Weather Map New forecast layout! Learn more

10-Day Weather Forecast

Advertisements
Track Severe Weather on mobile